Time;durP1;ratioP1;P1;durP2;ratioP2;P2;SDS_P1;SDS_P2;PMS_P1;PMS_P2;Temp;Humidity;BMP_temperature;BMP_pressure;BME280_temperature;BME280_humidity;BME280_pressure;Samples;Min_cycle;Max_cycle;Signal;HPM_P1;HPM_P2
2022/01/16 00:00:40;;;;;;;;;;;21.90;23.80;;;;;;5125224;27;20475;-49
2022/01/16 00:05:51;;;;;;;;;;;21.90;23.80;;;;;;5121375;27;19923;-51
2022/01/16 00:08:17;;;;;;;;;;;21.90;23.70;;;;;;5126585;27;19932;-51
2022/01/16 00:10:43;;;;;;;;;;;22.00;23.60;;;;;;5121584;27;19931;-53
2022/01/16 00:13:08;;;;;;;;;;;22.00;23.60;;;;;;5121629;27;20324;-48
2022/01/16 00:15:34;;;;;;;;;;;22.00;23.60;;;;;;5126764;27;19924;-50
2022/01/16 00:18:19;;;;;;;;;;;21.90;23.60;;;;;;5119538;27;20026;-53
2022/01/16 00:20:45;;;;;;;;;;;21.90;23.60;;;;;;5121031;27;19923;-49
2022/01/16 00:23:10;;;;;;;;;;;21.90;23.60;;;;;;5126597;27;19926;-52
2022/01/16 00:25:36;;;;;;;;;;;21.90;23.60;;;;;;5102812;27;19923;-53
2022/01/16 00:28:02;;;;;;;;;;;21.90;23.60;;;;;;5126695;27;19973;-48
2022/01/16 00:30:28;;;;;;;;;;;21.90;23.60;;;;;;5103184;27;19988;-52
2022/01/16 00:32:59;;;;;;;;;;;21.90;23.50;;;;;;5121528;27;19943;-50
2022/01/16 00:35:25;;;;;;;;;;;21.90;23.60;;;;;;5107451;27;20362;-49
2022/01/16 00:37:52;;;;;;;;;;;21.90;23.50;;;;;;5120048;27;19941;-47
2022/01/16 00:40:18;;;;;;;;;;;22.00;23.50;;;;;;5120969;27;19933;-47
2022/01/16 00:42:43;;;;;;;;;;;22.00;23.50;;;;;;5126376;27;19931;-51
2022/01/16 00:45:09;;;;;;;;;;;22.00;23.40;;;;;;5120943;27;19923;-47
2022/01/16 00:47:35;;;;;;;;;;;22.00;23.50;;;;;;5125006;27;19923;-51
2022/01/16 00:50:01;;;;;;;;;;;21.90;23.50;;;;;;5123327;27;20412;-48
2022/01/16 00:52:26;;;;;;;;;;;22.00;23.40;;;;;;5120880;28;19928;-48
2022/01/16 00:54:54;;;;;;;;;;;21.90;23.50;;;;;;5124435;28;19931;-48
2022/01/16 00:57:20;;;;;;;;;;;22.00;23.40;;;;;;5120759;27;20014;-47
2022/01/16 00:59:48;;;;;;;;;;;22.00;23.40;;;;;;5124388;27;19927;-46
2022/01/16 01:02:13;;;;;;;;;;;22.10;23.40;;;;;;5130492;27;19923;-50
2022/01/16 01:04:41;;;;;;;;;;;22.00;23.50;;;;;;5125205;27;19989;-48
2022/01/16 01:07:07;;;;;;;;;;;22.10;23.40;;;;;;5125332;27;20046;-47
2022/01/16 01:09:33;;;;;;;;;;;22.00;23.40;;;;;;5130699;27;19928;-48
2022/01/16 01:11:59;;;;;;;;;;;22.00;23.40;;;;;;5124279;27;19924;-48
2022/01/16 01:14:40;;;;;;;;;;;22.00;23.40;;;;;;5128825;27;19939;-47
2022/01/16 01:17:08;;;;;;;;;;;22.00;23.40;;;;;;5126447;27;19927;-46
2022/01/16 01:19:35;;;;;;;;;;;22.00;23.40;;;;;;5124697;27;19927;-48
2022/01/16 01:22:04;;;;;;;;;;;22.20;23.30;;;;;;5129960;27;20030;-46
2022/01/16 01:24:31;;;;;;;;;;;22.20;23.20;;;;;;5125084;27;19988;-46
2022/01/16 01:29:23;;;;;;;;;;;22.10;23.20;;;;;;5129994;27;20295;-47
2022/01/16 01:31:51;;;;;;;;;;;22.20;23.20;;;;;;5122572;27;20109;-47
2022/01/16 01:34:17;;;;;;;;;;;22.20;23.30;;;;;;5124380;27;19923;-47
2022/01/16 01:36:48;;;;;;;;;;;22.20;23.20;;;;;;5129984;27;19924;-49
2022/01/16 01:39:17;;;;;;;;;;;22.20;23.20;;;;;;5106118;27;20014;-47
2022/01/16 01:41:43;;;;;;;;;;;22.20;23.30;;;;;;5129458;27;20301;-50
2022/01/16 01:52:22;;;;;;;;;;;22.20;23.20;;;;;;5129526;27;20064;-46
2022/01/16 01:54:48;;;;;;;;;;;22.10;23.30;;;;;;5124191;27;19923;-48
2022/01/16 01:57:14;;;;;;;;;;;22.10;23.30;;;;;;5128549;27;19935;-53
2022/01/16 01:59:39;;;;;;;;;;;22.10;23.40;;;;;;5125207;27;19943;-46
2022/01/16 02:02:06;;;;;;;;;;;22.10;23.40;;;;;;5124257;27;19923;-47
2022/01/16 02:04:32;;;;;;;;;;;22.20;23.30;;;;;;5129573;27;20497;-47
2022/01/16 02:06:57;;;;;;;;;;;22.30;23.30;;;;;;5123495;27;19939;-47
2022/01/16 02:09:23;;;;;;;;;;;22.20;23.40;;;;;;5102521;27;20026;-49
2022/01/16 02:11:49;;;;;;;;;;;22.20;23.30;;;;;;5129347;27;19924;-46
2022/01/16 02:14:27;;;;;;;;;;;22.20;23.30;;;;;;5104677;27;20029;-48
2022/01/16 02:33:23;;;;;;;;;;;22.30;23.10;;;;;;5123457;27;19931;-46
2022/01/16 02:35:51;;;;;;;;;;;22.40;23.00;;;;;;5128792;27;20054;-47
2022/01/16 02:38:17;;;;;;;;;;;22.50;23.00;;;;;;5123684;27;20229;-47
2022/01/16 02:40:50;;;;;;;;;;;22.30;23.10;;;;;;5123484;27;19927;-45
2022/01/16 02:43:18;;;;;;;;;;;22.50;22.90;;;;;;5128673;27;20295;-45
2022/01/16 02:45:48;;;;;;;;;;;22.50;22.90;;;;;;5121479;27;20049;-44
2022/01/16 02:48:13;;;;;;;;;;;22.40;23.00;;;;;;5123111;27;20383;-47
2022/01/16 02:50:39;;;;;;;;;;;22.40;23.00;;;;;;5128680;27;19924;-46
2022/01/16 02:53:09;;;;;;;;;;;22.60;22.90;;;;;;5123069;27;20138;-44
2022/01/16 02:55:39;;;;;;;;;;;22.50;22.90;;;;;;5122838;27;20421;-45
2022/01/16 02:58:05;;;;;;;;;;;22.60;22.90;;;;;;5128746;27;20373;-44
2022/01/16 03:00:30;;;;;;;;;;;22.50;22.90;;;;;;5123099;27;19924;-44
2022/01/16 03:02:56;;;;;;;;;;;22.50;22.90;;;;;;5127404;27;19927;-46
2022/01/16 03:05:22;;;;;;;;;;;22.60;22.80;;;;;;5122082;27;20030;-44
2022/01/16 03:07:48;;;;;;;;;;;22.60;22.80;;;;;;5122955;27;19931;-45
2022/01/16 03:13:01;;;;;;;;;;;22.60;22.70;;;;;;5104332;27;19931;-48
2022/01/16 03:15:27;;;;;;;;;;;22.70;22.70;;;;;;5104585;27;19975;-45
2022/01/16 03:23:17;;;;;;;;;;;22.60;22.70;;;;;;5121165;27;19929;-45
2022/01/16 03:25:44;;;;;;;;;;;22.60;22.60;;;;;;5127944;27;19923;-44
2022/01/16 03:28:09;;;;;;;;;;;22.70;22.60;;;;;;5122321;27;19934;-45
2022/01/16 03:30:35;;;;;;;;;;;22.70;22.50;;;;;;5122228;27;20681;-44
2022/01/16 03:33:01;;;;;;;;;;;22.70;22.50;;;;;;5127724;27;19970;-46
2022/01/16 03:35:27;;;;;;;;;;;22.70;22.50;;;;;;5122362;27;20382;-44
2022/01/16 03:37:52;;;;;;;;;;;22.60;22.50;;;;;;5127025;27;20291;-53
2022/01/16 03:40:21;;;;;;;;;;;22.70;22.40;;;;;;5121492;27;19950;-45
2022/01/16 03:42:47;;;;;;;;;;;22.60;22.50;;;;;;5121788;27;20018;-45
2022/01/16 03:45:13;;;;;;;;;;;22.70;22.40;;;;;;5127541;27;19934;-45
2022/01/16 03:47:39;;;;;;;;;;;22.60;22.50;;;;;;5103565;27;20357;-44
2022/01/16 03:50:05;;;;;;;;;;;22.70;22.50;;;;;;5121732;27;20023;-45
2022/01/16 03:52:30;;;;;;;;;;;22.60;22.40;;;;;;5127490;27;19927;-45
2022/01/16 03:54:56;;;;;;;;;;;22.60;22.40;;;;;;5121997;27;19951;-44
2022/01/16 03:57:22;;;;;;;;;;;22.70;22.30;;;;;;5122862;27;19977;-50
2022/01/16 03:59:48;;;;;;;;;;;22.60;22.50;;;;;;5124629;27;20367;-44
2022/01/16 04:02:14;;;;;;;;;;;22.60;22.50;;;;;;5121724;27;19938;-44
2022/01/16 04:04:39;;;;;;;;;;;22.70;22.30;;;;;;5127105;27;19927;-46
2022/01/16 04:07:06;;;;;;;;;;;22.70;22.30;;;;;;5121580;27;19931;-44
2022/01/16 04:09:32;;;;;;;;;;;22.70;22.30;;;;;;5121528;27;20393;-44
2022/01/16 04:11:58;;;;;;;;;;;22.70;22.30;;;;;;5108805;27;19923;-45
2022/01/16 04:17:19;;;;;;;;;;;22.80;22.30;;;;;;5120059;27;19951;-48
2022/01/16 04:19:46;;;;;;;;;;;22.70;22.30;;;;;;5126463;27;19923;-45
2022/01/16 04:22:12;;;;;;;;;;;22.80;22.30;;;;;;5121335;27;19928;-44
2022/01/16 04:24:37;;;;;;;;;;;22.80;22.20;;;;;;5121284;27;19960;-45
2022/01/16 04:27:03;;;;;;;;;;;22.70;22.20;;;;;;5126667;27;19930;-44
2022/01/16 04:29:29;;;;;;;;;;;22.80;22.10;;;;;;5121430;27;19930;-46
2022/01/16 04:31:55;;;;;;;;;;;22.80;22.20;;;;;;5126765;27;20333;-46
2022/01/16 04:34:21;;;;;;;;;;;22.80;22.20;;;;;;5120569;27;19924;-46
2022/01/16 04:36:47;;;;;;;;;;;22.80;22.10;;;;;;5119534;27;19972;-47
2022/01/16 04:39:16;;;;;;;;;;;22.90;22.10;;;;;;5126620;27;19977;-47
2022/01/16 04:44:26;;;;;;;;;;;22.90;22.10;;;;;;5120984;27;20002;-48
2022/01/16 04:46:52;;;;;;;;;;;22.90;22.00;;;;;;5126730;27;19980;-47
2022/01/16 04:49:18;;;;;;;;;;;23.00;21.90;;;;;;5121070;27;20290;-47
2022/01/16 04:51:43;;;;;;;;;;;22.90;22.00;;;;;;5120948;27;20085;-50
2022/01/16 04:54:09;;;;;;;;;;;23.00;21.90;;;;;;5124747;28;19934;-48
2022/01/16 04:56:35;;;;;;;;;;;23.00;21.90;;;;;;5120578;28;20014;-48
2022/01/16 04:59:01;;;;;;;;;;;23.00;21.80;;;;;;5126507;28;19927;-48
2022/01/16 05:01:27;;;;;;;;;;;23.00;21.80;;;;;;5120700;28;19985;-47
2022/01/16 05:03:53;;;;;;;;;;;23.00;21.80;;;;;;5120671;28;19980;-48
2022/01/16 05:06:18;;;;;;;;;;;23.20;21.60;;;;;;5126641;28;20258;-51
2022/01/16 05:08:44;;;;;;;;;;;23.10;21.70;;;;;;5121232;28;19924;-46
2022/01/16 05:11:11;;;;;;;;;;;23.10;21.70;;;;;;5120639;28;20082;-48
2022/01/16 05:18:48;;;;;;;;;;;23.30;21.40;;;;;;5120582;28;19938;-45
2022/01/16 05:21:14;;;;;;;;;;;23.20;21.50;;;;;;5125942;28;19928;-51
2022/01/16 05:23:42;;;;;;;;;;;23.10;21.50;;;;;;5120671;28;19937;-47
2022/01/16 05:26:08;;;;;;;;;;;23.10;21.40;;;;;;5126362;28;19927;-47
2022/01/16 05:28:34;;;;;;;;;;;23.10;21.40;;;;;;5120718;28;19971;-51
2022/01/16 05:31:00;;;;;;;;;;;23.10;21.40;;;;;;5119343;28;20025;-55
2022/01/16 05:33:26;;;;;;;;;;;23.20;21.30;;;;;;5125670;28;20485;-45
2022/01/16 05:35:52;;;;;;;;;;;23.20;21.30;;;;;;5120730;28;20022;-45
2022/01/16 05:38:17;;;;;;;;;;;23.10;21.30;;;;;;5120398;28;19924;-47
2022/01/16 05:40:44;;;;;;;;;;;23.10;21.30;;;;;;5125863;28;19972;-47
2022/01/16 05:43:10;;;;;;;;;;;23.10;21.30;;;;;;5120637;28;19934;-47
2022/01/16 05:45:36;;;;;;;;;;;23.10;21.20;;;;;;5128662;27;19931;-48
2022/01/16 05:48:02;;;;;;;;;;;23.10;21.20;;;;;;5124904;27;19975;-46
2022/01/16 05:50:27;;;;;;;;;;;23.10;21.20;;;;;;5122453;27;19923;-48
2022/01/16 05:52:53;;;;;;;;;;;23.20;21.20;;;;;;5129756;27;20382;-46
2022/01/16 05:55:19;;;;;;;;;;;23.20;21.10;;;;;;5124161;27;20316;-47
2022/01/16 05:57:45;;;;;;;;;;;23.20;21.20;;;;;;5124077;27;19928;-48
2022/01/16 06:00:11;;;;;;;;;;;23.10;21.20;;;;;;5129432;27;19928;-47
2022/01/16 06:02:37;;;;;;;;;;;23.20;21.10;;;;;;5124284;27;19935;-49
2022/01/16 06:05:03;;;;;;;;;;;23.30;21.00;;;;;;5126953;27;19928;-55
2022/01/16 06:07:29;;;;;;;;;;;23.30;21.00;;;;;;5126634;27;20014;-46
2022/01/16 06:09:55;;;;;;;;;;;23.30;21.00;;;;;;5122620;27;20348;-48
2022/01/16 06:12:20;;;;;;;;;;;23.20;21.00;;;;;;5129135;27;19977;-46
2022/01/16 06:14:46;;;;;;;;;;;23.20;21.00;;;;;;5123616;27;19972;-50
2022/01/16 06:17:12;;;;;;;;;;;23.20;21.00;;;;;;5123735;27;20021;-47
2022/01/16 06:19:38;;;;;;;;;;;23.30;20.80;;;;;;5129618;27;19931;-46
2022/01/16 06:22:04;;;;;;;;;;;23.30;20.80;;;;;;5123811;27;20923;-46
2022/01/16 06:24:29;;;;;;;;;;;23.30;20.90;;;;;;5124163;27;20351;-54
2022/01/16 06:26:55;;;;;;;;;;;23.20;20.90;;;;;;5127264;27;19935;-47
2022/01/16 06:29:21;;;;;;;;;;;23.20;20.80;;;;;;5123496;27;19923;-48
2022/01/16 06:31:47;;;;;;;;;;;23.20;20.80;;;;;;5129070;27;20357;-50
2022/01/16 06:34:13;;;;;;;;;;;23.20;20.80;;;;;;5123366;27;20302;-48
2022/01/16 06:36:38;;;;;;;;;;;23.20;20.70;;;;;;5123172;27;19927;-47
2022/01/16 06:39:05;;;;;;;;;;;23.20;20.70;;;;;;5129137;27;19984;-47
2022/01/16 06:41:31;;;;;;;;;;;23.30;20.60;;;;;;5123370;27;20386;-47
2022/01/16 06:43:57;;;;;;;;;;;23.30;20.60;;;;;;5123046;27;19934;-49
2022/01/16 06:46:22;;;;;;;;;;;23.30;20.60;;;;;;5126964;27;20014;-46
2022/01/16 06:48:48;;;;;;;;;;;23.30;20.60;;;;;;5123203;27;20310;-45
2022/01/16 06:51:18;;;;;;;;;;;23.30;20.50;;;;;;5128410;27;20490;-45
2022/01/16 06:53:44;;;;;;;;;;;23.20;20.60;;;;;;5123061;27;19930;-47
2022/01/16 06:56:10;;;;;;;;;;;23.10;20.60;;;;;;5122113;27;20453;-47
2022/01/16 06:58:36;;;;;;;;;;;23.20;20.60;;;;;;5128836;27;19927;-47
2022/01/16 07:01:01;;;;;;;;;;;23.10;20.50;;;;;;5123081;27;19930;-50
2022/01/16 07:03:27;;;;;;;;;;;23.20;20.40;;;;;;5121498;27;19931;-48
2022/01/16 07:05:54;;;;;;;;;;;23.20;20.40;;;;;;5127861;27;19946;-50
2022/01/16 07:08:23;;;;;;;;;;;23.20;20.40;;;;;;5122903;27;19931;-50
2022/01/16 07:10:49;;;;;;;;;;;23.20;20.40;;;;;;5126306;27;20390;-55
2022/01/16 07:13:15;;;;;;;;;;;23.30;20.30;;;;;;5124992;27;19930;-47
2022/01/16 07:15:41;;;;;;;;;;;23.20;20.30;;;;;;5122693;27;19923;-48
2022/01/16 07:18:06;;;;;;;;;;;23.20;20.30;;;;;;5128333;27;19968;-47
2022/01/16 07:20:32;;;;;;;;;;;23.20;20.30;;;;;;5122427;27;20018;-49
2022/01/16 07:22:58;;;;;;;;;;;23.20;20.20;;;;;;5101565;27;19928;-46
2022/01/16 07:25:24;;;;;;;;;;;23.10;20.30;;;;;;5127943;27;19927;-45
2022/01/16 07:27:50;;;;;;;;;;;23.10;20.20;;;;;;5122618;27;20367;-46
2022/01/16 07:30:15;;;;;;;;;;;23.10;20.20;;;;;;5123805;27;19931;-52
2022/01/16 07:32:41;;;;;;;;;;;23.10;20.20;;;;;;5126631;27;19923;-44
2022/01/16 07:35:07;;;;;;;;;;;23.10;20.10;;;;;;5122455;27;19931;-47
2022/01/16 07:37:33;;;;;;;;;;;23.10;20.20;;;;;;5127694;27;19933;-47
2022/01/16 07:39:59;;;;;;;;;;;23.10;20.10;;;;;;5121354;27;19959;-49
2022/01/16 07:42:24;;;;;;;;;;;23.00;20.20;;;;;;5121185;27;20211;-48
2022/01/16 07:44:50;;;;;;;;;;;23.00;20.20;;;;;;5127682;27;19923;-48
2022/01/16 07:47:16;;;;;;;;;;;23.10;20.30;;;;;;5122007;27;20013;-51
2022/01/16 07:49:42;;;;;;;;;;;23.10;20.20;;;;;;5121940;27;20425;-49
2022/01/16 07:52:07;;;;;;;;;;;23.10;20.30;;;;;;5127670;27;19927;-52
2022/01/16 07:54:33;;;;;;;;;;;23.20;20.20;;;;;;5122236;27;20246;-54
2022/01/16 07:56:59;;;;;;;;;;;23.20;20.20;;;;;;5127423;27;20394;-51
2022/01/16 07:59:25;;;;;;;;;;;23.10;20.30;;;;;;5120301;27;20394;-55
2022/01/16 08:01:50;;;;;;;;;;;23.10;20.20;;;;;;5121668;27;20107;-50
2022/01/16 08:04:16;;;;;;;;;;;23.10;20.20;;;;;;5127278;27;19950;-53
2022/01/16 08:06:42;;;;;;;;;;;23.10;20.20;;;;;;5121451;27;19927;-50
2022/01/16 08:09:08;;;;;;;;;;;23.30;20.10;;;;;;5121531;27;20083;-49
2022/01/16 08:11:33;;;;;;;;;;;23.20;20.20;;;;;;5127305;27;19982;-52
2022/01/16 08:14:00;;;;;;;;;;;23.20;20.20;;;;;;5121766;27;19931;-50
2022/01/16 08:16:26;;;;;;;;;;;23.30;20.10;;;;;;5126822;27;19930;-53
2022/01/16 08:18:52;;;;;;;;;;;23.20;20.20;;;;;;5119897;27;19975;-50
2022/01/16 08:21:18;;;;;;;;;;;23.30;20.10;;;;;;5121355;27;19923;-50
2022/01/16 08:23:44;;;;;;;;;;;23.30;20.20;;;;;;5126863;27;19923;-46
2022/01/16 08:26:09;;;;;;;;;;;23.20;20.20;;;;;;5121136;27;19927;-48
2022/01/16 08:28:35;;;;;;;;;;;23.30;20.20;;;;;;5121159;27;19981;-52
2022/01/16 08:31:01;;;;;;;;;;;23.30;20.20;;;;;;5127068;27;19935;-52
2022/01/16 08:33:27;;;;;;;;;;;23.30;20.20;;;;;;5121509;27;19931;-52
2022/01/16 08:35:52;;;;;;;;;;;23.30;20.20;;;;;;5125427;27;19976;-55
2022/01/16 08:38:18;;;;;;;;;;;23.30;20.30;;;;;;5120753;27;19923;-50
2022/01/16 08:40:44;;;;;;;;;;;23.30;20.40;;;;;;5121005;27;19931;-50
2022/01/16 08:43:10;;;;;;;;;;;23.20;20.40;;;;;;5126323;27;20434;-49
2022/01/16 08:45:36;;;;;;;;;;;23.30;20.30;;;;;;5120918;27;20030;-48
2022/01/16 08:48:02;;;;;;;;;;;23.20;20.40;;;;;;5121275;27;19924;-50
2022/01/16 08:50:28;;;;;;;;;;;23.10;20.50;;;;;;5126785;27;20415;-48
2022/01/16 08:52:53;;;;;;;;;;;23.20;20.40;;;;;;5121167;27;19923;-49
2022/01/16 08:55:19;;;;;;;;;;;23.30;20.40;;;;;;5123105;27;19924;-54
2022/01/16 08:57:45;;;;;;;;;;;23.30;20.40;;;;;;5123186;28;19928;-44
2022/01/16 09:00:11;;;;;;;;;;;23.30;20.40;;;;;;5120988;28;20187;-47
2022/01/16 09:02:37;;;;;;;;;;;23.30;20.40;;;;;;5126291;28;20305;-45
2022/01/16 09:05:03;;;;;;;;;;;23.30;20.40;;;;;;5120735;28;19959;-43
2022/01/16 09:07:29;;;;;;;;;;;23.20;20.50;;;;;;5121160;28;20259;-44
2022/01/16 09:09:56;;;;;;;;;;;23.20;20.50;;;;;;5126292;28;19980;-46
2022/01/16 09:12:23;;;;;;;;;;;23.20;20.50;;;;;;5120215;28;19931;-46
2022/01/16 09:14:49;;;;;;;;;;;23.10;20.50;;;;;;5119893;28;19976;-51
2022/01/16 09:17:14;;;;;;;;;;;23.10;20.60;;;;;;5126315;28;20019;-48
2022/01/16 09:19:42;;;;;;;;;;;23.10;20.60;;;;;;5122461;27;20378;-47
2022/01/16 09:22:08;;;;;;;;;;;23.10;20.60;;;;;;5130057;27;19924;-45
2022/01/16 09:24:34;;;;;;;;;;;23.10;20.50;;;;;;5124891;27;20372;-45
2022/01/16 09:27:00;;;;;;;;;;;23.10;20.50;;;;;;5124834;27;19924;-46
2022/01/16 09:29:25;;;;;;;;;;;23.10;20.60;;;;;;5130159;27;19924;-45
2022/01/16 09:31:51;;;;;;;;;;;23.20;20.50;;;;;;5122929;27;20318;-47
2022/01/16 09:34:17;;;;;;;;;;;23.20;20.50;;;;;;5124263;27;20306;-46
2022/01/16 09:36:43;;;;;;;;;;;23.20;20.50;;;;;;5111689;27;19931;-45
2022/01/16 09:39:09;;;;;;;;;;;23.20;20.50;;;;;;5124488;27;19927;-46
2022/01/16 09:41:35;;;;;;;;;;;23.10;20.60;;;;;;5111446;27;19927;-46
2022/01/16 09:44:00;;;;;;;;;;;23.20;20.60;;;;;;5124553;27;20427;-49
2022/01/16 09:46:26;;;;;;;;;;;23.20;20.60;;;;;;5124480;27;20286;-45
2022/01/16 09:48:52;;;;;;;;;;;23.30;20.50;;;;;;5129628;27;19930;-46
2022/01/16 09:51:18;;;;;;;;;;;23.30;20.40;;;;;;5122648;27;20400;-48
2022/01/16 09:53:43;;;;;;;;;;;23.20;20.50;;;;;;5105806;27;19931;-46
2022/01/16 09:56:10;;;;;;;;;;;23.30;20.50;;;;;;5129502;27;20366;-53
2022/01/16 09:58:35;;;;;;;;;;;23.20;20.60;;;;;;5105762;27;19923;-52
2022/01/16 10:01:01;;;;;;;;;;;23.30;20.50;;;;;;5129510;27;20367;-48
2022/01/16 10:03:34;;;;;;;;;;;23.30;20.50;;;;;;5124380;27;19946;-45
2022/01/16 10:06:13;;;;;;;;;;;23.30;20.60;;;;;;5124275;27;19954;-49
2022/01/16 10:08:39;;;;;;;;;;;23.20;20.60;;;;;;5128038;27;19923;-49
2022/01/16 10:11:21;;;;;;;;;;;23.30;20.50;;;;;;5123560;27;19973;-49
2022/01/16 10:13:56;;;;;;;;;;;23.30;20.60;;;;;;5123924;27;20034;-48
2022/01/16 10:16:26;;;;;;;;;;;23.30;20.60;;;;;;5110969;27;19927;-50
2022/01/16 10:18:51;;;;;;;;;;;23.30;20.60;;;;;;5123705;27;19949;-49
2022/01/16 10:21:30;;;;;;;;;;;23.30;20.70;;;;;;5123674;27;19923;-52
2022/01/16 10:23:55;;;;;;;;;;;23.30;20.60;;;;;;5129277;27;19930;-45
2022/01/16 10:26:21;;;;;;;;;;;23.30;20.70;;;;;;5104959;27;20304;-46
2022/01/16 10:28:48;;;;;;;;;;;23.20;20.70;;;;;;5122317;27;19932;-45
2022/01/16 10:31:17;;;;;;;;;;;23.20;20.80;;;;;;5127746;27;20312;-44
2022/01/16 10:33:43;;;;;;;;;;;23.10;20.80;;;;;;5105278;27;20366;-44
2022/01/16 10:36:09;;;;;;;;;;;23.00;20.90;;;;;;5123519;27;19946;-44
2022/01/16 10:38:35;;;;;;;;;;;23.00;20.90;;;;;;5129102;27;19927;-45
2022/01/16 10:41:00;;;;;;;;;;;23.00;20.90;;;;;;5123462;27;19931;-45
2022/01/16 10:43:36;;;;;;;;;;;23.10;20.90;;;;;;5128599;27;20026;-45
2022/01/16 10:46:05;;;;;;;;;;;23.10;20.90;;;;;;5121461;27;19930;-43
2022/01/16 10:48:32;;;;;;;;;;;23.10;20.90;;;;;;5122990;27;19989;-47
2022/01/16 10:50:58;;;;;;;;;;;23.10;20.90;;;;;;5128696;27;20310;-47
2022/01/16 10:53:27;;;;;;;;;;;23.10;21.00;;;;;;5123171;27;19923;-48
2022/01/16 10:55:56;;;;;;;;;;;23.20;20.90;;;;;;5123054;27;20566;-46
2022/01/16 10:58:26;;;;;;;;;;;23.10;21.00;;;;;;5128741;27;19924;-47
2022/01/16 11:00:54;;;;;;;;;;;23.10;21.00;;;;;;5122968;27;19923;-47
2022/01/16 11:03:21;;;;;;;;;;;23.10;21.00;;;;;;5122544;27;20032;-47
2022/01/16 11:05:46;;;;;;;;;;;23.20;21.00;;;;;;5108349;27;20357;-47
2022/01/16 11:08:13;;;;;;;;;;;23.10;21.00;;;;;;5122709;27;19923;-48
2022/01/16 11:10:40;;;;;;;;;;;23.30;20.90;;;;;;5128207;27;20387;-47
2022/01/16 11:13:07;;;;;;;;;;;23.30;20.90;;;;;;5122801;27;19927;-46
2022/01/16 11:15:33;;;;;;;;;;;23.30;21.00;;;;;;5122972;27;19959;-46
2022/01/16 11:17:59;;;;;;;;;;;23.30;21.00;;;;;;5128174;27;19973;-45
2022/01/16 11:20:31;;;;;;;;;;;23.20;21.20;;;;;;5122467;27;19927;-48
2022/01/16 11:23:04;;;;;;;;;;;23.10;21.20;;;;;;5121060;27;20060;-46
2022/01/16 11:25:31;;;;;;;;;;;23.20;21.10;;;;;;5127588;27;19923;-45
2022/01/16 11:27:58;;;;;;;;;;;23.10;21.20;;;;;;5122254;27;20374;-45
2022/01/16 11:30:24;;;;;;;;;;;23.20;21.20;;;;;;5122341;27;20428;-44
2022/01/16 11:32:50;;;;;;;;;;;23.10;21.20;;;;;;5127698;27;19924;-47
2022/01/16 11:35:16;;;;;;;;;;;23.20;21.20;;;;;;5102449;27;20396;-44
2022/01/16 11:37:42;;;;;;;;;;;23.10;21.30;;;;;;5109383;27;19923;-46
2022/01/16 11:40:20;;;;;;;;;;;23.20;21.30;;;;;;5103506;27;20371;-46
2022/01/16 11:43:05;;;;;;;;;;;23.20;21.30;;;;;;5101755;27;19979;-48
2022/01/16 11:45:31;;;;;;;;;;;23.20;21.30;;;;;;5124068;27;19962;-48
2022/01/16 11:47:57;;;;;;;;;;;23.30;21.40;;;;;;5121852;27;19928;-48
2022/01/16 11:50:32;;;;;;;;;;;23.30;21.40;;;;;;5121599;27;20460;-45
2022/01/16 11:52:58;;;;;;;;;;;23.30;21.50;;;;;;5127425;27;19927;-44
2022/01/16 11:55:31;;;;;;;;;;;23.30;21.60;;;;;;5121915;27;19923;-44
2022/01/16 11:57:57;;;;;;;;;;;23.30;21.60;;;;;;5121612;27;20004;-45
2022/01/16 12:00:23;;;;;;;;;;;23.30;21.80;;;;;;5125359;27;19923;-48
2022/01/16 12:02:52;;;;;;;;;;;23.30;21.90;;;;;;5121653;27;20138;-44
2022/01/16 12:05:35;;;;;;;;;;;23.30;22.00;;;;;;5121756;27;20029;-46
2022/01/16 12:08:08;;;;;;;;;;;23.30;22.00;;;;;;5127010;27;19924;-46
2022/01/16 12:10:42;;;;;;;;;;;23.30;22.10;;;;;;5121574;27;19927;-45
2022/01/16 12:13:28;;;;;;;;;;;23.30;22.20;;;;;;5121748;27;20000;-46
2022/01/16 12:16:13;;;;;;;;;;;23.30;22.20;;;;;;5127057;27;19930;-46
2022/01/16 12:18:38;;;;;;;;;;;23.30;22.30;;;;;;5120033;27;19927;-53
2022/01/16 12:21:24;;;;;;;;;;;23.00;22.70;;;;;;5121145;27;20326;-54
2022/01/16 12:23:50;;;;;;;;;;;22.80;22.80;;;;;;5126742;27;19928;-53
2022/01/16 12:26:31;;;;;;;;;;;22.70;23.00;;;;;;5121264;27;19924;-54
2022/01/16 12:28:58;;;;;;;;;;;22.70;23.10;;;;;;5121406;27;19929;-54
2022/01/16 12:31:32;;;;;;;;;;;22.70;23.10;;;;;;5127022;27;19932;-50
2022/01/16 12:34:00;;;;;;;;;;;22.60;23.10;;;;;;5121375;27;19981;-54
2022/01/16 12:36:26;;;;;;;;;;;22.70;23.10;;;;;;5120368;27;19994;-51
2022/01/16 12:38:52;;;;;;;;;;;22.60;23.10;;;;;;5125422;27;20018;-54
2022/01/16 12:41:24;;;;;;;;;;;22.60;23.20;;;;;;5121140;27;20025;-52
2022/01/16 12:43:50;;;;;;;;;;;22.70;23.10;;;;;;5121908;27;19934;-56
2022/01/16 12:46:16;;;;;;;;;;;22.70;23.10;;;;;;5126102;27;19924;-50
2022/01/16 12:48:43;;;;;;;;;;;22.70;23.00;;;;;;5121297;27;20275;-53
2022/01/16 12:51:09;;;;;;;;;;;22.80;22.80;;;;;;5126995;27;19929;-51
2022/01/16 12:53:42;;;;;;;;;;;22.70;22.80;;;;;;5120374;27;20359;-52
2022/01/16 12:56:17;;;;;;;;;;;22.60;22.80;;;;;;5119264;27;20018;-52
2022/01/16 12:58:42;;;;;;;;;;;22.60;22.80;;;;;;5126393;28;20353;-51
2022/01/16 13:01:08;;;;;;;;;;;22.60;22.80;;;;;;5121255;28;19923;-50
2022/01/16 13:03:34;;;;;;;;;;;22.70;22.70;;;;;;5120783;28;19924;-51
2022/01/16 13:06:16;;;;;;;;;;;22.70;22.70;;;;;;5126275;28;19938;-49
2022/01/16 13:08:55;;;;;;;;;;;22.80;22.60;;;;;;5121028;28;19970;-50
2022/01/16 13:11:21;;;;;;;;;;;22.70;22.70;;;;;;5120909;28;19928;-51
2022/01/16 13:13:47;;;;;;;;;;;22.70;22.70;;;;;;5125162;28;19939;-52
2022/01/16 13:16:16;;;;;;;;;;;22.80;22.60;;;;;;5120017;28;19923;-51
2022/01/16 13:19:01;;;;;;;;;;;22.70;22.60;;;;;;5120846;28;19978;-55
2022/01/16 13:21:34;;;;;;;;;;;22.80;22.60;;;;;;5125925;28;19927;-50
2022/01/16 13:24:00;;;;;;;;;;;22.80;22.60;;;;;;5120432;28;19923;-49
2022/01/16 13:26:26;;;;;;;;;;;22.80;22.50;;;;;;5121105;28;19927;-55
2022/01/16 13:29:01;;;;;;;;;;;22.80;22.50;;;;;;5126238;28;19928;-50
2022/01/16 13:31:26;;;;;;;;;;;22.80;22.60;;;;;;5120314;28;19987;-52
2022/01/16 13:34:05;;;;;;;;;;;22.80;22.50;;;;;;5124360;28;19931;-52
2022/01/16 13:36:31;;;;;;;;;;;22.90;22.50;;;;;;5124502;28;20566;-52
2022/01/16 13:38:57;;;;;;;;;;;22.80;22.50;;;;;;5120644;28;19927;-51
2022/01/16 13:41:23;;;;;;;;;;;22.80;22.50;;;;;;5125818;28;19931;-52
2022/01/16 13:43:48;;;;;;;;;;;22.90;22.40;;;;;;5120604;28;19945;-50
2022/01/16 13:46:14;;;;;;;;;;;22.90;22.50;;;;;;5120825;28;19923;-50
2022/01/16 13:48:41;;;;;;;;;;;22.90;22.40;;;;;;5126283;28;19924;-52
2022/01/16 13:51:07;;;;;;;;;;;22.90;22.50;;;;;;5119032;28;20018;-51
2022/01/16 13:53:33;;;;;;;;;;;22.90;22.50;;;;;;5119881;28;20385;-52
2022/01/16 13:56:00;;;;;;;;;;;22.90;22.40;;;;;;5125977;28;20275;-52
2022/01/16 13:58:26;;;;;;;;;;;22.80;22.50;;;;;;5120196;28;20347;-52
2022/01/16 14:00:53;;;;;;;;;;;22.80;22.50;;;;;;5125834;28;19931;-49
2022/01/16 14:03:20;;;;;;;;;;;22.80;22.60;;;;;;5102382;28;20022;-52
2022/01/16 14:05:47;;;;;;;;;;;22.80;22.60;;;;;;5122314;27;19935;-51
2022/01/16 14:08:17;;;;;;;;;;;22.80;22.60;;;;;;5129209;27;20021;-50
2022/01/16 14:10:42;;;;;;;;;;;22.80;22.50;;;;;;5122479;27;19927;-50
2022/01/16 14:13:10;;;;;;;;;;;22.80;22.60;;;;;;5123882;27;20090;-51
2022/01/16 14:15:37;;;;;;;;;;;22.80;22.60;;;;;;5129264;27;19923;-52
2022/01/16 14:18:12;;;;;;;;;;;22.80;22.60;;;;;;5123876;27;19927;-51
2022/01/16 14:20:49;;;;;;;;;;;22.80;22.60;;;;;;5123706;27;19928;-54
2022/01/16 14:23:15;;;;;;;;;;;22.80;22.60;;;;;;5125938;27;19935;-52
2022/01/16 14:25:41;;;;;;;;;;;22.90;22.50;;;;;;5123858;27;20223;-50
2022/01/16 14:28:07;;;;;;;;;;;22.80;22.60;;;;;;5109435;27;19933;-51
2022/01/16 14:30:33;;;;;;;;;;;22.80;22.60;;;;;;5123106;27;20000;-50
2022/01/16 14:32:59;;;;;;;;;;;22.80;22.60;;;;;;5123297;27;19923;-48
2022/01/16 14:35:24;;;;;;;;;;;22.80;22.60;;;;;;5128605;27;19927;-50
2022/01/16 14:37:50;;;;;;;;;;;22.80;22.60;;;;;;5123240;27;19924;-49
2022/01/16 14:40:16;;;;;;;;;;;22.90;22.50;;;;;;5123557;27;19958;-50
2022/01/16 14:42:44;;;;;;;;;;;22.90;22.40;;;;;;5128758;27;19931;-49
2022/01/16 14:45:09;;;;;;;;;;;22.90;22.50;;;;;;5123293;27;20379;-49
2022/01/16 14:47:35;;;;;;;;;;;22.90;22.40;;;;;;5124960;27;20015;-57
2022/01/16 14:50:01;;;;;;;;;;;22.90;22.40;;;;;;5125682;27;19923;-47
2022/01/16 14:52:27;;;;;;;;;;;22.90;22.40;;;;;;5123276;27;19931;-48
2022/01/16 14:54:53;;;;;;;;;;;22.90;22.40;;;;;;5128602;27;20019;-48
2022/01/16 14:57:19;;;;;;;;;;;22.80;22.40;;;;;;5123148;27;19923;-47
2022/01/16 14:59:45;;;;;;;;;;;22.90;22.30;;;;;;5123028;27;19927;-46
2022/01/16 15:02:11;;;;;;;;;;;22.90;22.40;;;;;;5128447;27;19927;-46
2022/01/16 15:04:37;;;;;;;;;;;22.90;22.40;;;;;;5122269;27;20359;-49